createdAt,value
2019-05-21T00:02:23.718Z,54.33
2019-05-21T00:04:56.016Z,54.32
2019-05-21T00:07:28.393Z,54.34
2019-05-21T00:10:00.898Z,54.35
2019-05-21T00:12:33.001Z,54.36
2019-05-21T00:15:05.696Z,54.37
2019-05-21T00:17:38.027Z,54.43
2019-05-21T00:20:10.864Z,54.43
2019-05-21T00:22:43.210Z,54.46
2019-05-21T00:25:17.281Z,54.53
2019-05-21T00:27:49.354Z,54.53
2019-05-21T00:31:13.959Z,54.55
2019-05-21T00:34:43.863Z,54.58
2019-05-21T00:38:04.324Z,54.63
2019-05-21T00:41:28.982Z,54.69
2019-05-21T00:44:01.869Z,54.75
2019-05-21T00:46:34.452Z,54.83
2019-05-21T00:49:06.720Z,54.85
2019-05-21T00:51:38.934Z,54.83
2019-05-21T00:54:11.922Z,54.86
2019-05-21T00:56:44.132Z,54.83
2019-05-21T00:59:18.218Z,54.83
2019-05-21T01:01:51.058Z,54.86
2019-05-21T01:04:23.301Z,54.91
2019-05-21T01:06:56.034Z,54.94
2019-05-21T01:09:28.506Z,54.98
2019-05-21T01:12:04.349Z,54.99
2019-05-21T01:14:36.603Z,55.00
2019-05-21T01:17:08.891Z,54.98
2019-05-21T01:19:41.125Z,54.98
2019-05-21T01:22:13.509Z,54.99
2019-05-21T01:24:46.575Z,55.02
2019-05-21T01:27:19.237Z,55.03
2019-05-21T01:29:51.571Z,55.10
2019-05-21T01:32:23.915Z,55.20
2019-05-21T01:34:56.233Z,55.32
2019-05-21T01:37:28.456Z,55.39
2019-05-21T01:40:00.774Z,55.42
2019-05-21T01:42:32.974Z,55.41
2019-05-21T01:45:05.177Z,55.41
2019-05-21T01:47:37.559Z,55.37
2019-05-21T01:50:10.096Z,55.35
2019-05-21T01:52:42.361Z,55.33
2019-05-21T01:55:14.534Z,55.33
2019-05-21T01:57:46.852Z,55.29
2019-05-21T02:00:19.143Z,55.28
2019-05-21T02:02:51.386Z,55.28
2019-05-21T02:05:32.717Z,55.30
2019-05-21T02:07:57.908Z,55.27
2019-05-21T02:10:30.209Z,55.31
2019-05-21T02:13:02.448Z,55.28
2019-05-21T02:15:34.896Z,55.30
2019-05-21T02:18:07.114Z,55.37
2019-05-21T02:20:39.458Z,55.42
2019-05-21T02:23:11.744Z,55.45
2019-05-21T02:25:44.270Z,55.47
2019-05-21T02:28:16.385Z,55.44
2019-05-21T02:30:48.562Z,55.42
2019-05-21T02:33:20.968Z,55.39
2019-05-21T02:35:54.888Z,55.32
2019-05-21T02:38:27.337Z,55.27
2019-05-21T02:40:59.714Z,55.24
2019-05-21T02:43:32.648Z,55.25
2019-05-21T02:46:04.910Z,55.28
2019-05-21T02:48:37.394Z,55.36
2019-05-21T02:51:09.518Z,55.43
2019-05-21T02:53:42.033Z,55.46
2019-05-21T02:56:14.543Z,55.46
2019-05-21T02:58:46.835Z,55.42
2019-05-21T03:01:31.730Z,55.40
2019-05-21T03:04:03.896Z,55.38
2019-05-21T03:06:36.151Z,55.38
2019-05-21T03:09:09.563Z,55.38
2019-05-21T03:11:41.839Z,55.36
2019-05-21T03:14:14.052Z,55.38
2019-05-21T03:16:46.345Z,55.39
2019-05-21T03:19:18.661Z,55.41
2019-05-21T03:21:50.846Z,55.41
2019-05-21T03:24:23.219Z,55.40
2019-05-21T03:26:55.393Z,55.38
2019-05-21T03:29:27.867Z,55.39
2019-05-21T03:32:00.020Z,55.41
2019-05-21T03:34:32.656Z,55.44
2019-05-21T03:37:04.818Z,55.47
2019-05-21T03:39:37.068Z,55.53
2019-05-21T03:42:09.272Z,55.55
2019-05-21T03:44:58.363Z,55.54
2019-05-21T03:47:15.475Z,55.55
2019-05-21T03:49:47.855Z,55.54
2019-05-21T03:52:20.101Z,55.55
2019-05-21T03:54:52.316Z,55.56
2019-05-21T03:57:24.510Z,55.57
2019-05-21T03:59:56.749Z,55.57
2019-05-21T04:02:30.012Z,55.61
2019-05-21T04:05:02.245Z,55.63
2019-05-21T04:07:34.431Z,55.69
2019-05-21T04:10:09.011Z,55.72
2019-05-21T04:12:41.120Z,55.74
2019-05-21T04:15:15.353Z,55.76
2019-05-21T04:17:56.744Z,55.73
2019-05-21T04:20:29.030Z,55.75
2019-05-21T04:23:01.481Z,55.75
2019-05-21T04:25:33.902Z,55.71
2019-05-21T04:28:06.356Z,55.75
2019-05-21T04:30:38.566Z,55.74
2019-05-21T04:33:11.213Z,55.73
2019-05-21T04:35:43.926Z,55.69
2019-05-21T04:38:16.187Z,55.70
2019-05-21T04:40:48.652Z,55.70
2019-05-21T04:43:21.157Z,55.67
2019-05-21T04:45:53.650Z,55.65
2019-05-21T04:48:25.993Z,55.62
2019-05-21T04:50:58.231Z,55.59
2019-05-21T04:53:30.482Z,55.54
2019-05-21T04:56:02.806Z,55.53
2019-05-21T04:58:34.916Z,55.47
2019-05-21T05:01:07.205Z,55.44
2019-05-21T05:03:39.441Z,55.33
2019-05-21T05:06:11.611Z,55.16
2019-05-21T05:08:44.077Z,55.04
2019-05-21T05:11:19.456Z,54.98
2019-05-21T05:13:52.017Z,54.90
2019-05-21T05:16:24.281Z,54.84
2019-05-21T05:18:56.498Z,54.68
2019-05-21T05:21:28.775Z,54.33
2019-05-21T05:24:01.019Z,53.91
2019-05-21T05:26:33.220Z,53.51
2019-05-21T05:29:05.623Z,53.13
2019-05-21T05:31:37.893Z,52.77
2019-05-21T05:34:10.102Z,52.40
2019-05-21T05:36:42.722Z,52.16
2019-05-21T05:39:14.867Z,51.84
2019-05-21T05:41:47.189Z,51.58
2019-05-21T05:44:19.379Z,51.22
2019-05-21T05:46:51.557Z,51.01
2019-05-21T05:49:29.448Z,50.84
2019-05-21T05:52:01.686Z,50.65
2019-05-21T05:54:34.197Z,50.49
2019-05-21T05:57:06.448Z,50.33
2019-05-21T05:59:38.810Z,50.16
2019-05-21T06:02:10.964Z,49.93
2019-05-21T06:04:43.350Z,49.78
2019-05-21T06:07:15.533Z,49.62
2019-05-21T06:09:47.754Z,49.46
2019-05-21T06:12:20.142Z,49.34
2019-05-21T06:14:52.475Z,49.21
2019-05-21T06:17:24.840Z,48.99
2019-05-21T06:19:57.332Z,49.04
2019-05-21T06:22:29.438Z,48.97
2019-05-21T06:25:01.895Z,48.93
2019-05-21T06:27:34.183Z,48.92
2019-05-21T06:30:06.955Z,48.80
2019-05-21T06:32:39.155Z,48.63
2019-05-21T06:35:11.347Z,48.42
2019-05-21T06:37:43.587Z,48.31
2019-05-21T06:40:16.124Z,48.22
2019-05-21T06:42:48.666Z,48.02
2019-05-21T06:45:21.804Z,48.14
2019-05-21T06:47:54.124Z,48.22
2019-05-21T06:50:26.268Z,48.04
2019-05-21T06:52:58.603Z,48.12
2019-05-21T06:55:30.907Z,48.16
2019-05-21T06:58:03.106Z,48.13
2019-05-21T07:00:38.458Z,48.15
2019-05-21T07:03:12.754Z,47.95
2019-05-21T07:05:58.120Z,47.92
2019-05-21T07:08:33.684Z,47.92
2019-05-21T07:10:53.087Z,47.98
2019-05-21T07:13:25.237Z,48.00
2019-05-21T07:15:58.699Z,48.19
2019-05-21T07:18:31.031Z,48.41
2019-05-21T07:21:03.220Z,48.45
2019-05-21T07:23:35.455Z,48.56
2019-05-21T07:26:07.821Z,48.70
2019-05-21T07:28:40.177Z,48.79
2019-05-21T07:31:12.442Z,48.87
2019-05-21T07:33:44.694Z,48.96
2019-05-21T07:36:17.194Z,48.92
2019-05-21T07:38:53.730Z,48.77
2019-05-21T07:41:23.189Z,48.87
2019-05-21T07:43:55.462Z,48.99
2019-05-21T07:46:27.678Z,49.00
2019-05-21T07:48:59.850Z,48.88
2019-05-21T07:51:32.135Z,48.84
2019-05-21T07:54:04.413Z,48.71
2019-05-21T07:56:36.681Z,48.61
2019-05-21T07:59:09.018Z,48.61
2019-05-21T08:01:41.205Z,48.50
2019-05-21T08:04:13.458Z,48.51
2019-05-21T08:06:45.796Z,48.48
2019-05-21T08:09:18.119Z,48.28
2019-05-21T08:11:50.538Z,48.13
2019-05-21T08:14:23.157Z,47.93
2019-05-21T08:16:58.661Z,47.69
2019-05-21T08:19:31.431Z,47.47
2019-05-21T08:22:03.871Z,47.41
2019-05-21T08:24:36.159Z,47.27
2019-05-21T08:27:08.537Z,47.22
2019-05-21T08:29:40.860Z,47.22
2019-05-21T08:32:13.079Z,47.38
2019-05-21T08:34:45.389Z,47.46
2019-05-21T08:37:17.596Z,47.68
2019-05-21T08:39:50.346Z,47.83
2019-05-21T08:42:22.562Z,48.08
2019-05-21T08:44:54.884Z,48.28
2019-05-21T08:47:27.278Z,48.47
2019-05-21T08:49:59.516Z,48.66
2019-05-21T08:52:31.754Z,48.73
2019-05-21T08:55:03.983Z,48.74
2019-05-21T08:57:36.305Z,48.67
2019-05-21T09:00:12.853Z,48.71
2019-05-21T09:02:45.092Z,48.75
2019-05-21T09:05:17.335Z,48.79
2019-05-21T09:07:53.472Z,48.72
2019-05-21T09:10:23.938Z,48.67
2019-05-21T09:12:56.252Z,48.63
2019-05-21T09:15:28.412Z,48.67
2019-05-21T09:18:00.636Z,48.65
2019-05-21T09:20:32.951Z,48.62
2019-05-21T09:23:05.746Z,48.61
2019-05-21T09:25:38.652Z,48.57
2019-05-21T09:28:10.778Z,48.42
2019-05-21T09:30:43.059Z,48.28
2019-05-21T09:33:15.505Z,48.18
2019-05-21T09:35:47.723Z,48.16
2019-05-21T09:38:20.010Z,48.19
2019-05-21T09:40:52.583Z,48.10
2019-05-21T09:43:24.855Z,48.10
2019-05-21T09:45:57.037Z,47.98
2019-05-21T09:48:29.282Z,48.10
2019-05-21T09:51:01.500Z,48.18
2019-05-21T09:53:33.932Z,48.05
2019-05-21T09:56:28.199Z,47.98
2019-05-21T09:59:02.403Z,47.82
2019-05-21T10:01:40.196Z,47.82
2019-05-21T10:04:12.404Z,47.87
2019-05-21T10:06:44.823Z,47.65
2019-05-21T10:09:18.593Z,47.69
2019-05-21T10:11:53.445Z,47.75
2019-05-21T10:14:25.571Z,47.78
2019-05-21T10:16:58.036Z,47.83
2019-05-21T10:19:30.300Z,47.86
2019-05-21T10:22:02.858Z,47.89
2019-05-21T10:24:35.287Z,47.87
2019-05-21T10:27:07.557Z,47.87
2019-05-21T10:29:42.709Z,47.92
2019-05-21T10:32:14.967Z,47.85
2019-05-21T10:34:47.141Z,47.73
2019-05-21T10:37:19.446Z,47.72
2019-05-21T10:39:51.719Z,47.78
2019-05-21T10:42:24.002Z,47.80
2019-05-21T10:44:56.221Z,47.88
2019-05-21T10:47:28.938Z,47.93
2019-05-21T10:50:01.222Z,47.84
2019-05-21T10:52:33.623Z,47.71
2019-05-21T10:55:06.088Z,47.58
2019-05-21T10:57:38.330Z,47.58
2019-05-21T11:00:14.001Z,47.53
2019-05-21T11:02:51.545Z,47.55
2019-05-21T11:05:35.899Z,47.58
2019-05-21T11:08:25.068Z,47.51
2019-05-21T11:10:42.684Z,47.57
2019-05-21T11:13:14.937Z,47.51
2019-05-21T11:15:47.192Z,47.56
2019-05-21T11:18:19.333Z,47.42
2019-05-21T11:20:51.925Z,47.35
2019-05-21T11:23:24.247Z,47.32
2019-05-21T11:25:56.543Z,47.22
2019-05-21T11:28:29.039Z,47.16
2019-05-21T11:31:01.670Z,47.11
2019-05-21T11:33:34.188Z,47.08
2019-05-21T11:36:06.702Z,46.88
2019-05-21T11:38:40.352Z,46.79
2019-05-21T11:41:13.249Z,46.55
2019-05-21T11:43:45.786Z,46.46
2019-05-21T11:46:18.038Z,46.42
2019-05-21T11:48:50.766Z,46.46
2019-05-21T11:51:23.339Z,46.55
2019-05-21T11:53:56.405Z,46.53
2019-05-21T11:56:28.852Z,46.55
2019-05-21T11:59:01.048Z,46.56
2019-05-21T12:01:33.395Z,46.57
2019-05-21T12:04:05.771Z,46.55
2019-05-21T12:06:37.895Z,46.55
2019-05-21T12:09:11.082Z,46.39
2019-05-21T12:11:43.227Z,46.31
2019-05-21T12:14:15.403Z,46.38
2019-05-21T12:16:47.685Z,46.52
2019-05-21T12:19:19.871Z,46.63
2019-05-21T12:21:52.134Z,46.61
2019-05-21T12:24:27.469Z,46.58
2019-05-21T12:26:58.310Z,46.37
2019-05-21T12:29:34.077Z,46.14
2019-05-21T12:32:04.804Z,46.06
2019-05-21T12:34:39.030Z,46.08
2019-05-21T12:37:10.955Z,46.03
2019-05-21T12:39:43.186Z,45.93
2019-05-21T12:42:16.126Z,45.99
2019-05-21T12:44:48.286Z,45.55
2019-05-21T12:47:20.854Z,45.41
2019-05-21T12:49:53.306Z,45.11
2019-05-21T12:52:25.592Z,45.09
2019-05-21T12:54:57.794Z,44.62
2019-05-21T12:57:30.114Z,44.55
2019-05-21T13:00:02.278Z,44.60
2019-05-21T13:02:34.554Z,44.73
2019-05-21T13:05:10.903Z,44.71
2019-05-21T13:07:41.229Z,44.42
2019-05-21T13:10:14.245Z,44.37
2019-05-21T13:12:46.474Z,44.09
2019-05-21T13:15:18.908Z,44.00
2019-05-21T13:17:51.453Z,44.14
2019-05-21T13:20:23.990Z,44.15
2019-05-21T13:22:57.646Z,44.11
2019-05-21T13:25:29.902Z,44.07
2019-05-21T13:28:02.207Z,43.69
2019-05-21T13:30:34.748Z,43.60
2019-05-21T13:33:07.228Z,43.61
2019-05-21T13:35:39.609Z,43.58
2019-05-21T13:38:13.547Z,43.62
2019-05-21T13:40:46.846Z,43.49
2019-05-21T13:43:21.158Z,43.54
2019-05-21T13:45:53.041Z,43.66
2019-05-21T13:48:25.438Z,43.71
2019-05-21T13:50:59.854Z,43.81
2019-05-21T13:53:32.064Z,43.62
2019-05-21T13:56:04.415Z,43.35
2019-05-21T13:58:36.644Z,43.08
2019-05-21T14:01:09.702Z,42.98
2019-05-21T14:03:41.919Z,43.05
2019-05-21T14:06:14.471Z,42.94
2019-05-21T14:08:46.779Z,42.85
2019-05-21T14:11:20.336Z,43.04
2019-05-21T14:13:52.663Z,42.91
2019-05-21T14:16:24.982Z,42.84
2019-05-21T14:18:57.215Z,42.82
2019-05-21T14:21:29.380Z,42.94
2019-05-21T14:24:01.670Z,42.83
2019-05-21T14:26:33.865Z,42.79
2019-05-21T14:29:06.385Z,42.82
2019-05-21T14:31:38.805Z,42.77
2019-05-21T14:34:11.053Z,42.79
2019-05-21T14:36:43.392Z,42.76
2019-05-21T14:39:17.750Z,42.76
2019-05-21T14:41:50.299Z,42.76
2019-05-21T14:44:22.525Z,42.75
2019-05-21T14:46:54.783Z,42.67
2019-05-21T14:49:27.045Z,42.69
2019-05-21T14:51:59.369Z,42.72
2019-05-21T14:54:33.909Z,42.72
2019-05-21T14:57:12.989Z,42.70
2019-05-21T14:59:45.747Z,42.70
2019-05-21T15:02:18.066Z,42.63
2019-05-21T15:04:50.805Z,42.67
2019-05-21T15:07:23.431Z,42.68
2019-05-21T15:09:55.818Z,42.68
2019-05-21T15:12:28.214Z,42.61
2019-05-21T15:15:00.368Z,42.55
2019-05-21T15:17:33.256Z,42.48
2019-05-21T15:20:09.305Z,42.40
2019-05-21T15:22:42.023Z,42.28
2019-05-21T15:25:14.317Z,42.24
2019-05-21T15:27:46.550Z,42.15
2019-05-21T15:30:18.766Z,42.11
2019-05-21T15:32:51.173Z,41.92
2019-05-21T15:35:23.537Z,41.84
2019-05-21T15:37:55.929Z,41.66
2019-05-21T15:40:28.429Z,41.61
2019-05-21T15:43:00.726Z,41.57
2019-05-21T15:45:33.111Z,41.44
2019-05-21T15:48:05.333Z,41.42
2019-05-21T15:50:37.461Z,41.42
2019-05-21T15:53:10.480Z,41.40
2019-05-21T15:55:42.932Z,41.35
2019-05-21T15:58:15.071Z,41.39
2019-05-21T16:00:47.358Z,41.46
2019-05-21T16:03:19.912Z,41.50
2019-05-21T16:05:52.464Z,41.57
2019-05-21T16:08:26.739Z,41.60
2019-05-21T16:11:00.991Z,41.64
2019-05-21T16:13:33.590Z,41.67
2019-05-21T16:16:05.936Z,41.75
2019-05-21T16:18:38.179Z,41.76
2019-05-21T16:21:10.515Z,41.79
2019-05-21T16:23:43.100Z,41.83
2019-05-21T16:26:15.725Z,41.88
2019-05-21T16:28:47.978Z,41.89
2019-05-21T16:31:20.286Z,41.95
2019-05-21T16:33:52.547Z,42.00
2019-05-21T16:36:24.833Z,42.02
2019-05-21T16:38:57.249Z,42.06
2019-05-21T16:41:43.480Z,42.08
2019-05-21T16:44:03.598Z,42.09
2019-05-21T16:46:36.308Z,42.09
2019-05-21T16:49:09.205Z,42.11
2019-05-21T16:51:43.564Z,42.11
2019-05-21T16:54:15.853Z,42.08
2019-05-21T16:56:49.825Z,42.10
2019-05-21T16:59:22.210Z,42.10
2019-05-21T17:01:54.968Z,42.04
2019-05-21T17:04:27.669Z,42.03
2019-05-21T17:07:00.139Z,42.01
2019-05-21T17:09:32.507Z,41.89
2019-05-21T17:12:05.575Z,41.82
2019-05-21T17:14:38.065Z,41.75
2019-05-21T17:17:10.510Z,41.69
2019-05-21T17:19:42.977Z,41.63
2019-05-21T17:22:15.196Z,41.57
2019-05-21T17:24:47.455Z,41.49
2019-05-21T17:27:19.611Z,41.51
2019-05-21T17:29:52.043Z,41.51
2019-05-21T17:32:24.313Z,41.48
2019-05-21T17:34:56.608Z,41.49
2019-05-21T17:37:28.948Z,41.49
2019-05-21T17:40:01.664Z,41.47
2019-05-21T17:42:34.166Z,41.43
2019-05-21T17:45:07.030Z,41.45
2019-05-21T17:47:39.385Z,41.42
2019-05-21T17:50:12.369Z,41.43
2019-05-21T17:52:45.071Z,41.38
2019-05-21T17:55:17.846Z,41.34
2019-05-21T17:57:50.258Z,41.35
2019-05-21T18:00:29.126Z,41.33
2019-05-21T18:03:03.814Z,41.28
2019-05-21T18:05:36.042Z,41.27
2019-05-21T18:08:08.417Z,41.27
2019-05-21T18:10:40.921Z,41.23
2019-05-21T18:13:13.733Z,41.21
2019-05-21T18:15:46.332Z,41.21
2019-05-21T18:18:18.955Z,41.17
2019-05-21T18:20:51.489Z,41.16
2019-05-21T18:23:23.710Z,41.14
2019-05-21T18:25:55.956Z,41.15
2019-05-21T18:28:28.358Z,41.10
2019-05-21T18:31:00.686Z,41.07
2019-05-21T18:33:32.899Z,41.05
2019-05-21T18:36:05.356Z,41.04
2019-05-21T18:38:37.875Z,41.01
2019-05-21T18:41:10.108Z,40.98
2019-05-21T18:43:42.951Z,40.99
2019-05-21T18:46:15.360Z,40.96
2019-05-21T18:48:47.694Z,40.93
2019-05-21T18:51:20.362Z,40.88
2019-05-21T18:53:52.765Z,40.82
2019-05-21T18:56:25.395Z,40.78
2019-05-21T18:58:58.500Z,40.74
2019-05-21T19:01:31.169Z,40.67
2019-05-21T19:04:03.568Z,40.68
2019-05-21T19:06:35.939Z,40.67
2019-05-21T19:09:10.310Z,40.67
2019-05-21T19:11:42.556Z,40.69
2019-05-21T19:14:14.790Z,40.68
2019-05-21T19:16:47.131Z,40.68
2019-05-21T19:19:20.923Z,40.67
2019-05-21T19:21:53.395Z,40.64
2019-05-21T19:24:25.651Z,40.63
2019-05-21T19:26:57.820Z,40.66
2019-05-21T19:29:30.172Z,40.67
2019-05-21T19:32:02.390Z,40.68
2019-05-21T19:34:34.657Z,40.69
2019-05-21T19:37:06.922Z,40.68
2019-05-21T19:39:39.400Z,40.64
2019-05-21T19:42:11.804Z,40.64
2019-05-21T19:44:44.080Z,40.67
2019-05-21T19:47:16.348Z,40.71
2019-05-21T19:49:48.644Z,40.72
2019-05-21T19:52:22.923Z,40.70
2019-05-21T19:54:55.251Z,40.68
2019-05-21T19:57:29.788Z,40.70
2019-05-21T20:00:02.393Z,40.73
2019-05-21T20:02:35.418Z,40.75
2019-05-21T20:05:08.633Z,40.78
2019-05-21T20:07:42.772Z,40.78
2019-05-21T20:10:16.155Z,40.80
2019-05-21T20:12:48.665Z,40.84
2019-05-21T20:15:22.398Z,40.90
2019-05-21T20:18:06.934Z,40.92
2019-05-21T20:20:30.468Z,40.97
2019-05-21T20:23:08.320Z,41.01
2019-05-21T20:25:53.789Z,40.99
2019-05-21T20:28:14.150Z,41.03
2019-05-21T20:30:47.222Z,41.08
2019-05-21T20:33:20.759Z,41.13
2019-05-21T20:35:54.051Z,41.14
2019-05-21T20:38:27.868Z,41.19
2019-05-21T20:41:01.103Z,41.24
2019-05-21T20:43:33.602Z,41.27
2019-05-21T20:46:07.868Z,41.30
2019-05-21T20:48:40.982Z,41.31
2019-05-21T20:51:13.684Z,41.34
2019-05-21T20:53:46.633Z,41.40
2019-05-21T20:56:19.187Z,41.44
2019-05-21T20:58:51.490Z,41.45
2019-05-21T21:01:25.882Z,41.47
2019-05-21T21:03:58.418Z,41.48
2019-05-21T21:06:35.280Z,41.50
2019-05-21T21:09:10.770Z,41.53
2019-05-21T21:11:43.501Z,41.60
2019-05-21T21:14:18.365Z,41.68
2019-05-21T21:16:50.868Z,41.73
2019-05-21T21:19:23.525Z,41.79
2019-05-21T21:21:56.047Z,41.85
2019-05-21T21:24:28.444Z,41.91
2019-05-21T21:27:00.895Z,41.95
2019-05-21T21:29:33.187Z,42.00
2019-05-21T21:32:05.914Z,42.05
2019-05-21T21:34:38.212Z,42.10
2019-05-21T21:37:10.783Z,42.13
2019-05-21T21:39:43.037Z,42.15
2019-05-21T21:42:16.251Z,42.16
2019-05-21T21:44:49.377Z,42.17
2019-05-21T21:47:22.546Z,42.17
2019-05-21T21:49:55.261Z,42.18
2019-05-21T21:52:28.315Z,42.21
2019-05-21T21:55:02.528Z,42.22
2019-05-21T21:57:34.816Z,42.24
2019-05-21T22:00:18.569Z,42.26
2019-05-21T22:02:51.310Z,42.27
2019-05-21T22:05:25.122Z,42.31
2019-05-21T22:07:58.089Z,42.36
2019-05-21T22:10:32.203Z,42.38
2019-05-21T22:13:05.226Z,42.42
2019-05-21T22:15:37.780Z,42.47
2019-05-21T22:18:10.510Z,42.50
2019-05-21T22:20:43.742Z,42.55
2019-05-21T22:23:16.368Z,42.59
2019-05-21T22:25:48.703Z,42.64
2019-05-21T22:28:21.969Z,42.66
2019-05-21T22:30:56.647Z,42.71
2019-05-21T22:33:29.319Z,42.75
2019-05-21T22:36:01.659Z,42.81
2019-05-21T22:38:33.945Z,42.82
2019-05-21T22:41:06.379Z,42.87
2019-05-21T22:43:39.216Z,42.94
2019-05-21T22:46:11.424Z,42.99
2019-05-21T22:48:43.607Z,43.02
2019-05-21T22:51:15.842Z,43.01
2019-05-21T22:53:48.149Z,43.01
2019-05-21T22:56:20.346Z,43.04
2019-05-21T22:58:52.760Z,43.10
2019-05-21T23:01:26.631Z,43.13
2019-05-21T23:03:59.547Z,43.16
2019-05-21T23:06:31.966Z,43.16
2019-05-21T23:09:05.796Z,43.18
2019-05-21T23:11:38.322Z,43.19
2019-05-21T23:14:10.854Z,43.25
2019-05-21T23:16:43.156Z,43.30
2019-05-21T23:19:16.535Z,43.33
2019-05-21T23:21:49.822Z,43.37
2019-05-21T23:24:24.053Z,43.41
2019-05-21T23:26:56.447Z,43.44
2019-05-21T23:29:28.985Z,43.50
2019-05-21T23:32:01.636Z,43.54
2019-05-21T23:34:34.866Z,43.57
2019-05-21T23:37:08.943Z,43.62
2019-05-21T23:39:42.614Z,43.68
2019-05-21T23:42:28.567Z,43.75
2019-05-21T23:44:49.582Z,43.79
2019-05-21T23:47:22.206Z,43.84
2019-05-21T23:49:55.065Z,43.88
2019-05-21T23:52:27.805Z,43.93
2019-05-21T23:55:00.950Z,43.92
2019-05-21T23:57:37.575Z,43.98
